createdAt,value
2017-10-26T00:00:04.485Z,8.57
2017-10-26T00:02:33.363Z,6.80
2017-10-26T00:05:02.205Z,3.93
2017-10-26T00:07:31.080Z,8.00
2017-10-26T00:09:59.935Z,4.77
2017-10-26T00:12:28.811Z,16.03
2017-10-26T00:14:57.661Z,5.40
2017-10-26T00:17:26.583Z,7.40
2017-10-26T00:19:55.439Z,5.13
2017-10-26T00:22:24.288Z,5.20
2017-10-26T00:24:53.157Z,8.27
2017-10-26T00:27:22.030Z,6.60
2017-10-26T00:29:50.976Z,6.03
2017-10-26T00:32:19.817Z,7.07
2017-10-26T00:34:48.676Z,7.00
2017-10-26T00:37:17.527Z,6.60
2017-10-26T00:39:46.381Z,15.13
2017-10-26T00:42:15.250Z,9.23
2017-10-26T00:44:44.095Z,7.50
2017-10-26T00:47:12.972Z,12.10
2017-10-26T00:49:41.835Z,7.17
2017-10-26T00:52:10.698Z,11.73
2017-10-26T00:54:39.569Z,6.27
2017-10-26T00:57:08.430Z,6.80
2017-10-26T00:59:37.308Z,6.57
2017-10-26T01:02:06.156Z,6.50
2017-10-26T01:04:35.015Z,7.13
2017-10-26T01:07:03.854Z,9.27
2017-10-26T01:09:32.741Z,6.43
2017-10-26T01:12:01.595Z,7.20
2017-10-26T01:14:30.442Z,9.10
2017-10-26T01:16:59.319Z,6.90
2017-10-26T01:19:28.185Z,5.07
2017-10-26T01:21:57.050Z,6.10
2017-10-26T01:24:25.901Z,12.63
2017-10-26T01:26:54.774Z,7.83
2017-10-26T01:29:23.631Z,7.03
2017-10-26T01:31:52.889Z,7.33
2017-10-26T01:34:21.756Z,7.50
2017-10-26T01:36:50.634Z,8.53
2017-10-26T01:39:19.506Z,5.30
2017-10-26T01:41:48.352Z,5.20
2017-10-26T01:44:17.232Z,11.80
2017-10-26T01:46:46.082Z,11.80
2017-10-26T01:49:14.947Z,12.50
2017-10-26T01:51:43.818Z,11.10
2017-10-26T01:54:12.681Z,12.67
2017-10-26T01:56:41.550Z,11.30
2017-10-26T01:59:10.415Z,6.70
2017-10-26T02:01:39.342Z,12.43
2017-10-26T02:04:08.187Z,13.23
2017-10-26T02:06:37.038Z,10.07
2017-10-26T02:09:05.922Z,19.67
2017-10-26T02:11:34.793Z,11.63
2017-10-26T02:14:03.692Z,18.37
2017-10-26T02:16:32.547Z,24.77
2017-10-26T02:19:01.428Z,12.13
2017-10-26T02:21:30.305Z,17.13
2017-10-26T02:23:59.253Z,13.57
2017-10-26T02:26:28.107Z,12.03
2017-10-26T02:29:02.787Z,9.50
2017-10-26T02:31:34.383Z,8.50
2017-10-26T02:34:03.248Z,9.83
2017-10-26T02:36:32.139Z,12.70
2017-10-26T02:39:00.992Z,12.60
2017-10-26T02:41:30.300Z,13.07
2017-10-26T02:43:59.157Z,19.73
2017-10-26T02:46:28.064Z,16.83
2017-10-26T02:48:57.075Z,18.83
2017-10-26T02:51:25.920Z,9.63
2017-10-26T02:53:54.762Z,14.33
2017-10-26T02:56:23.680Z,12.53
2017-10-26T02:58:52.523Z,14.43
2017-10-26T03:01:21.372Z,9.37
2017-10-26T03:03:50.270Z,10.83
2017-10-26T03:06:19.117Z,16.33
2017-10-26T03:08:47.972Z,9.90
2017-10-26T03:11:17.103Z,9.27
2017-10-26T03:13:45.957Z,8.50
2017-10-26T03:16:14.850Z,16.73
2017-10-26T03:18:43.761Z,15.47
2017-10-26T03:21:12.624Z,23.30
2017-10-26T03:23:41.487Z,30.93
2017-10-26T03:26:10.359Z,17.47
2017-10-26T03:28:39.305Z,19.77
2017-10-26T03:31:08.797Z,17.83
2017-10-26T03:33:37.649Z,10.70
2017-10-26T03:36:06.519Z,11.30
2017-10-26T03:38:35.377Z,13.33
2017-10-26T03:41:04.277Z,12.70
2017-10-26T03:43:33.192Z,14.37
2017-10-26T03:46:08.070Z,13.43
2017-10-26T03:48:36.906Z,9.13
2017-10-26T03:51:05.755Z,9.70
2017-10-26T03:53:34.624Z,12.43
2017-10-26T03:56:03.481Z,8.43
2017-10-26T03:58:32.367Z,10.97
2017-10-26T04:01:01.247Z,12.03
2017-10-26T04:03:30.110Z,7.37
2017-10-26T04:05:58.983Z,9.77
2017-10-26T04:08:27.832Z,15.17
2017-10-26T04:10:56.715Z,24.70
2017-10-26T04:13:25.590Z,16.03
2017-10-26T04:15:54.539Z,14.83
2017-10-26T04:18:23.422Z,15.23
2017-10-26T04:20:52.318Z,11.00
2017-10-26T04:23:21.204Z,12.60
2017-10-26T04:25:50.042Z,11.10
2017-10-26T04:28:18.930Z,14.60
2017-10-26T04:30:47.799Z,9.70
2017-10-26T04:33:16.643Z,8.10
2017-10-26T04:35:45.549Z,9.97
2017-10-26T04:38:14.399Z,11.97
2017-10-26T04:40:43.330Z,10.43
2017-10-26T04:43:12.216Z,10.90
2017-10-26T04:45:41.075Z,17.10
2017-10-26T04:48:10.098Z,14.83
2017-10-26T04:50:38.963Z,15.73
2017-10-26T04:53:07.877Z,12.90
2017-10-26T04:55:36.745Z,12.80
2017-10-26T04:58:05.618Z,10.30
2017-10-26T05:00:34.491Z,10.03
2017-10-26T05:03:03.338Z,11.93
2017-10-26T05:05:32.180Z,11.57
2017-10-26T05:08:01.050Z,12.23
2017-10-26T05:10:29.909Z,7.90
2017-10-26T05:12:59.051Z,9.67
2017-10-26T05:15:27.899Z,5.53
2017-10-26T05:17:56.743Z,10.60
2017-10-26T05:20:25.608Z,9.10
2017-10-26T05:22:54.467Z,5.43
2017-10-26T05:25:23.549Z,9.80
2017-10-26T05:27:52.398Z,3.57
2017-10-26T05:30:21.243Z,10.30
2017-10-26T05:32:50.108Z,3.87
2017-10-26T05:35:18.969Z,6.63
2017-10-26T05:37:47.990Z,16.43
2017-10-26T05:40:16.855Z,11.20
2017-10-26T05:42:45.715Z,8.17
2017-10-26T05:45:14.594Z,6.60
2017-10-26T05:47:43.434Z,7.77
2017-10-26T05:50:12.329Z,10.77
2017-10-26T05:52:41.409Z,15.63
2017-10-26T05:55:10.521Z,3.47
2017-10-26T05:57:39.366Z,3.70
2017-10-26T06:00:08.234Z,2.70
2017-10-26T06:02:37.097Z,3.33
2017-10-26T06:05:06.029Z,4.40
2017-10-26T06:07:34.896Z,5.43
2017-10-26T06:10:03.758Z,13.23
2017-10-26T06:12:32.744Z,5.63
2017-10-26T06:15:01.591Z,8.97
2017-10-26T06:17:30.442Z,5.77
2017-10-26T06:19:59.315Z,9.00
2017-10-26T06:22:28.151Z,7.13
2017-10-26T06:24:57.023Z,3.70
2017-10-26T06:27:25.861Z,5.07
2017-10-26T06:29:54.867Z,8.63
2017-10-26T06:32:23.746Z,16.63
2017-10-26T06:34:52.607Z,12.07
2017-10-26T06:37:21.479Z,11.20
2017-10-26T06:39:50.330Z,12.90
2017-10-26T06:42:19.216Z,14.30
2017-10-26T06:44:48.749Z,12.03
2017-10-26T06:47:17.655Z,14.50
2017-10-26T06:49:46.498Z,18.00
2017-10-26T06:52:15.354Z,10.17
2017-10-26T06:54:44.238Z,11.93
2017-10-26T06:57:13.125Z,12.60
2017-10-26T06:59:41.997Z,10.40
2017-10-26T07:02:10.858Z,7.20
2017-10-26T07:04:39.763Z,6.73
2017-10-26T07:07:08.630Z,10.50
2017-10-26T07:09:37.486Z,9.93
2017-10-26T07:12:06.342Z,6.90
2017-10-26T07:14:35.183Z,4.50
2017-10-26T07:17:04.052Z,3.10
2017-10-26T07:19:32.895Z,4.83
2017-10-26T07:22:01.781Z,2.30
2017-10-26T07:24:30.626Z,6.93
2017-10-26T07:26:59.478Z,5.97
2017-10-26T07:29:28.347Z,12.63
2017-10-26T07:31:57.300Z,4.43
2017-10-26T07:34:26.180Z,4.33
2017-10-26T07:36:55.037Z,6.50
2017-10-26T07:39:23.955Z,3.43
2017-10-26T07:41:52.814Z,6.90
2017-10-26T07:44:21.706Z,12.27
2017-10-26T07:46:50.582Z,29.70
2017-10-26T07:49:19.451Z,9.03
2017-10-26T07:51:48.315Z,21.20
2017-10-26T07:54:17.205Z,9.10
2017-10-26T07:56:46.082Z,6.83
2017-10-26T07:59:14.935Z,10.40
2017-10-26T08:01:43.811Z,7.57
2017-10-26T08:04:12.679Z,21.27
2017-10-26T08:06:41.552Z,9.10
2017-10-26T08:09:10.413Z,6.43
2017-10-26T08:11:39.262Z,9.13
2017-10-26T08:14:08.133Z,8.50
2017-10-26T08:16:36.987Z,6.87
2017-10-26T08:19:05.835Z,16.50
2017-10-26T08:21:34.699Z,12.60
2017-10-26T08:24:03.556Z,4.67
2017-10-26T08:26:32.417Z,6.53
2017-10-26T08:29:01.271Z,5.63
2017-10-26T08:31:31.010Z,5.00
2017-10-26T08:33:59.880Z,17.83
2017-10-26T08:36:28.730Z,32.23
2017-10-26T08:38:57.613Z,49.93
2017-10-26T08:41:26.486Z,29.47
2017-10-26T08:43:55.377Z,35.87
2017-10-26T08:46:24.963Z,6.93
2017-10-26T08:48:53.830Z,6.53
2017-10-26T08:51:22.682Z,2.43
2017-10-26T08:53:52.547Z,6.50
2017-10-26T08:56:21.390Z,8.57
2017-10-26T08:58:50.261Z,13.07
2017-10-26T09:01:19.126Z,13.60
2017-10-26T09:03:47.983Z,9.20
2017-10-26T09:06:16.854Z,3.00
2017-10-26T09:08:45.697Z,13.93
2017-10-26T09:11:14.585Z,132.53
2017-10-26T09:13:43.431Z,16.13
2017-10-26T09:16:12.322Z,25.10
2017-10-26T09:18:41.197Z,9.23
2017-10-26T09:21:10.043Z,6.23
2017-10-26T09:23:38.900Z,8.53
2017-10-26T09:26:07.756Z,6.80
2017-10-26T09:28:36.630Z,3.37
2017-10-26T09:31:05.470Z,10.73
2017-10-26T09:33:37.947Z,3.70
2017-10-26T09:36:06.808Z,3.27
2017-10-26T09:38:35.676Z,5.40
2017-10-26T09:41:04.538Z,8.83
2017-10-26T09:43:33.382Z,4.33
2017-10-26T09:46:02.275Z,4.40
2017-10-26T09:48:31.464Z,2.90
2017-10-26T09:51:00.527Z,16.70
2017-10-26T09:53:29.426Z,4.30
2017-10-26T09:55:58.275Z,5.03
2017-10-26T09:58:27.151Z,5.30
2017-10-26T10:00:55.996Z,5.60
2017-10-26T10:03:24.862Z,2.20
2017-10-26T10:05:53.732Z,8.37
2017-10-26T10:08:22.591Z,5.63
2017-10-26T10:10:51.439Z,9.30
2017-10-26T10:13:20.290Z,6.93
2017-10-26T10:15:49.204Z,5.17
2017-10-26T10:18:18.068Z,7.73
2017-10-26T10:20:46.905Z,5.63
2017-10-26T10:23:15.805Z,7.63
2017-10-26T10:25:44.664Z,2.87
2017-10-26T10:28:13.497Z,4.50
2017-10-26T10:30:42.366Z,5.87
2017-10-26T10:33:11.251Z,9.47
2017-10-26T10:35:40.143Z,4.00
2017-10-26T10:38:08.981Z,2.50
2017-10-26T10:40:37.850Z,7.50
2017-10-26T10:43:06.699Z,5.83
2017-10-26T10:45:35.544Z,9.90
2017-10-26T10:48:04.407Z,4.40
2017-10-26T10:50:33.287Z,10.50
2017-10-26T10:53:02.200Z,2.70
2017-10-26T10:55:31.063Z,5.70
2017-10-26T10:57:59.915Z,5.17
2017-10-26T11:00:33.754Z,4.40
2017-10-26T11:03:02.614Z,3.27
2017-10-26T11:05:31.480Z,3.47
2017-10-26T11:08:00.343Z,2.10
2017-10-26T11:10:29.232Z,8.10
2017-10-26T11:12:58.116Z,4.27
2017-10-26T11:15:26.971Z,3.67
2017-10-26T11:17:55.845Z,7.03
2017-10-26T11:20:24.691Z,4.30
2017-10-26T11:22:53.571Z,5.20
2017-10-26T11:25:22.435Z,2.80
2017-10-26T11:27:51.428Z,7.10
2017-10-26T11:30:20.275Z,3.77
2017-10-26T11:32:49.136Z,3.10
2017-10-26T11:35:18.006Z,2.60
2017-10-26T11:37:46.862Z,3.00
2017-10-26T11:40:15.719Z,2.53
2017-10-26T11:42:44.572Z,3.97
2017-10-26T11:45:13.462Z,3.23
2017-10-26T11:47:42.300Z,5.53
2017-10-26T11:50:11.151Z,7.03
2017-10-26T11:52:40.053Z,2.07
2017-10-26T11:55:08.910Z,2.93
2017-10-26T11:57:37.805Z,4.20
2017-10-26T12:00:06.648Z,6.30
2017-10-26T12:02:35.559Z,3.77
2017-10-26T12:05:04.411Z,4.53
2017-10-26T12:07:33.274Z,3.00
2017-10-26T12:10:02.135Z,6.17
2017-10-26T12:12:30.988Z,3.57
2017-10-26T12:14:59.857Z,2.90
2017-10-26T12:17:28.704Z,2.00
2017-10-26T12:19:57.612Z,3.47
2017-10-26T12:22:26.478Z,2.03
2017-10-26T12:24:55.342Z,5.20
2017-10-26T12:27:24.201Z,3.00
2017-10-26T12:29:53.044Z,2.80
2017-10-26T12:32:21.907Z,1.90
2017-10-26T12:34:50.745Z,5.23
2017-10-26T12:37:19.635Z,3.93
2017-10-26T12:39:48.518Z,7.13
2017-10-26T12:42:17.378Z,5.27
2017-10-26T12:44:46.270Z,2.93
2017-10-26T12:47:15.142Z,2.20
2017-10-26T12:49:44.010Z,5.80
2017-10-26T12:52:12.875Z,2.00
2017-10-26T12:54:41.764Z,2.60
2017-10-26T12:57:10.631Z,2.03
2017-10-26T12:59:39.477Z,4.17
2017-10-26T13:02:08.363Z,4.00
2017-10-26T13:04:37.231Z,2.23
2017-10-26T13:07:06.133Z,2.00
2017-10-26T13:09:34.983Z,7.50
2017-10-26T13:12:04.042Z,3.70
2017-10-26T13:14:32.891Z,3.13
2017-10-26T13:17:01.742Z,2.10
2017-10-26T13:19:30.606Z,1.53
2017-10-26T13:21:59.466Z,1.50
2017-10-26T13:24:28.326Z,2.20
2017-10-26T13:26:57.179Z,1.50
2017-10-26T13:29:26.061Z,5.10
2017-10-26T13:31:54.958Z,2.03
2017-10-26T13:34:23.801Z,2.20
2017-10-26T13:36:52.677Z,4.10
2017-10-26T13:39:21.538Z,6.60
2017-10-26T13:41:50.396Z,2.83
2017-10-26T13:44:19.245Z,1.50
2017-10-26T13:46:48.127Z,2.30
2017-10-26T13:49:17.011Z,2.20
2017-10-26T13:51:45.860Z,2.47
2017-10-26T13:54:14.724Z,5.83
2017-10-26T13:56:43.579Z,3.00
2017-10-26T13:59:12.451Z,2.60
2017-10-26T14:01:41.296Z,2.50
2017-10-26T14:04:10.182Z,2.80
2017-10-26T14:06:39.026Z,5.17
2017-10-26T14:09:07.885Z,6.27
2017-10-26T14:11:36.762Z,3.93
2017-10-26T14:14:05.635Z,17.77
2017-10-26T14:16:34.511Z,6.43
2017-10-26T14:19:03.354Z,2.47
2017-10-26T14:21:32.240Z,8.80
2017-10-26T14:24:01.086Z,3.20
2017-10-26T14:26:29.936Z,3.30
2017-10-26T14:28:58.800Z,3.67
2017-10-26T14:31:27.650Z,7.07
2017-10-26T14:33:56.518Z,6.70
2017-10-26T14:36:25.358Z,3.10
2017-10-26T14:38:54.247Z,2.90
2017-10-26T14:41:23.107Z,6.90
2017-10-26T14:43:51.949Z,4.40
2017-10-26T14:46:20.850Z,3.20
2017-10-26T14:48:49.707Z,3.67
2017-10-26T14:51:18.588Z,3.50
2017-10-26T14:53:47.429Z,6.90
2017-10-26T14:56:16.340Z,4.20
2017-10-26T14:58:45.286Z,6.77
2017-10-26T15:01:14.180Z,13.57
2017-10-26T15:03:43.050Z,3.10
2017-10-26T15:06:11.896Z,7.80
2017-10-26T15:08:40.766Z,3.80
2017-10-26T15:11:09.806Z,5.73
2017-10-26T15:13:38.693Z,3.30
2017-10-26T15:16:07.554Z,3.90
2017-10-26T15:18:36.407Z,3.20
2017-10-26T15:21:05.279Z,2.77
2017-10-26T15:23:34.140Z,4.90
2017-10-26T15:26:03.026Z,7.83
2017-10-26T15:28:31.882Z,11.50
2017-10-26T15:31:00.812Z,3.43
2017-10-26T15:33:29.661Z,3.27
2017-10-26T15:35:58.501Z,3.17
2017-10-26T15:38:27.391Z,4.60
2017-10-26T15:40:56.242Z,4.97
2017-10-26T15:43:25.183Z,5.90
2017-10-26T15:45:54.150Z,15.20
2017-10-26T15:48:23.140Z,14.77
2017-10-26T15:50:52.072Z,11.70
2017-10-26T15:53:20.985Z,5.60
2017-10-26T15:55:49.962Z,10.20
2017-10-26T15:58:18.837Z,7.53
2017-10-26T16:00:47.706Z,14.00
2017-10-26T16:03:16.554Z,18.10
2017-10-26T16:05:45.587Z,8.80
2017-10-26T16:08:14.439Z,7.70
2017-10-26T16:10:43.302Z,8.17
2017-10-26T16:13:12.193Z,10.57
2017-10-26T16:15:41.051Z,9.80
2017-10-26T16:18:09.949Z,11.83
2017-10-26T16:20:38.817Z,9.57
2017-10-26T16:23:07.717Z,11.43
2017-10-26T16:25:36.581Z,13.10
2017-10-26T16:28:05.435Z,7.85
2017-10-26T16:30:34.299Z,13.23
2017-10-26T16:33:03.189Z,13.40
2017-10-26T16:35:32.054Z,14.53
2017-10-26T16:38:00.902Z,14.30
2017-10-26T16:40:29.797Z,19.43
2017-10-26T16:42:58.671Z,15.13
2017-10-26T16:45:27.777Z,25.30
2017-10-26T16:47:56.663Z,16.47
2017-10-26T16:50:25.534Z,14.13
2017-10-26T16:52:54.407Z,11.50
2017-10-26T16:55:23.254Z,28.03
2017-10-26T16:57:52.265Z,20.53
2017-10-26T17:00:21.116Z,18.53
2017-10-26T17:02:49.968Z,14.37
2017-10-26T17:05:18.857Z,14.43
2017-10-26T17:07:47.701Z,33.50
2017-10-26T17:10:16.581Z,16.43
2017-10-26T17:12:45.526Z,21.03
2017-10-26T17:15:14.437Z,24.50
2017-10-26T17:17:43.294Z,22.70
2017-10-26T17:20:12.154Z,31.07
2017-10-26T17:22:41.021Z,24.27
2017-10-26T17:25:09.889Z,25.63
2017-10-26T17:27:38.761Z,32.17
2017-10-26T17:30:07.606Z,27.87
2017-10-26T17:32:36.512Z,31.90
2017-10-26T17:35:05.390Z,31.43
2017-10-26T17:37:34.251Z,37.08
2017-10-26T17:40:03.134Z,39.90
2017-10-26T17:42:31.994Z,32.70
2017-10-26T17:45:00.851Z,43.80
2017-10-26T17:47:29.707Z,36.73
2017-10-26T17:49:58.656Z,45.57
2017-10-26T17:52:27.509Z,42.40
2017-10-26T17:54:56.402Z,44.13
2017-10-26T17:57:25.296Z,44.40
2017-10-26T17:59:54.191Z,44.53
2017-10-26T18:02:23.085Z,46.50
2017-10-26T18:04:51.948Z,44.53
2017-10-26T18:07:20.888Z,54.63
2017-10-26T18:09:49.756Z,43.83
2017-10-26T18:12:18.639Z,47.20
2017-10-26T18:14:47.521Z,51.33
2017-10-26T18:17:16.400Z,52.03
2017-10-26T18:19:45.290Z,43.47
2017-10-26T18:22:14.174Z,44.63
2017-10-26T18:24:43.059Z,44.80
2017-10-26T18:27:11.953Z,46.00
2017-10-26T18:29:40.803Z,43.27
2017-10-26T18:32:09.675Z,43.87
2017-10-26T18:34:38.550Z,59.57
2017-10-26T18:37:07.421Z,37.33
2017-10-26T18:39:36.279Z,51.43
2017-10-26T18:42:05.802Z,51.37
2017-10-26T18:44:34.650Z,40.37
2017-10-26T18:47:03.507Z,37.97
2017-10-26T18:49:32.393Z,39.23
2017-10-26T18:52:01.313Z,36.23
2017-10-26T18:54:30.198Z,37.87
2017-10-26T18:56:59.055Z,38.23
2017-10-26T18:59:27.925Z,34.60
2017-10-26T19:01:56.794Z,27.73
2017-10-26T19:04:25.651Z,28.57
2017-10-26T19:06:54.508Z,31.67
2017-10-26T19:09:23.372Z,30.37
2017-10-26T19:11:52.500Z,28.70
2017-10-26T19:14:21.381Z,35.13
2017-10-26T19:16:50.251Z,30.20
2017-10-26T19:19:19.131Z,30.77
2017-10-26T19:21:48.001Z,33.60
2017-10-26T19:24:16.863Z,31.10
2017-10-26T19:26:45.810Z,30.57
2017-10-26T19:29:14.721Z,23.20
2017-10-26T19:31:43.598Z,30.03
2017-10-26T19:34:12.454Z,27.03
2017-10-26T19:36:41.362Z,25.13
2017-10-26T19:39:10.251Z,19.13
2017-10-26T19:41:39.122Z,21.33
2017-10-26T19:44:08.394Z,30.40
2017-10-26T19:46:37.437Z,22.37
2017-10-26T19:49:06.279Z,24.53
2017-10-26T19:51:35.143Z,21.83
2017-10-26T19:54:04.041Z,23.40
2017-10-26T19:56:32.904Z,20.93
2017-10-26T19:59:01.817Z,23.97
2017-10-26T20:01:30.671Z,24.23
2017-10-26T20:03:59.589Z,23.40
2017-10-26T20:06:28.455Z,22.73
2017-10-26T20:08:57.314Z,19.70
2017-10-26T20:11:26.187Z,25.17
2017-10-26T20:13:55.052Z,20.40
2017-10-26T20:16:24.110Z,21.10
2017-10-26T20:18:52.978Z,19.87
2017-10-26T20:21:21.890Z,20.70
2017-10-26T20:23:50.752Z,21.73
2017-10-26T20:26:19.624Z,20.20
2017-10-26T20:28:48.501Z,15.73
2017-10-26T20:31:17.356Z,15.43
2017-10-26T20:33:46.294Z,19.83
2017-10-26T20:36:15.155Z,16.30
2017-10-26T20:38:44.085Z,20.53
2017-10-26T20:41:12.953Z,18.97
2017-10-26T20:43:41.838Z,14.73
2017-10-26T20:46:10.723Z,17.63
2017-10-26T20:48:39.574Z,22.03
2017-10-26T20:51:14.170Z,16.60
2017-10-26T20:53:48.923Z,22.27
2017-10-26T20:56:23.606Z,18.43
2017-10-26T20:58:58.162Z,11.70
2017-10-26T21:01:33.400Z,12.33
2017-10-26T21:04:08.083Z,10.03
2017-10-26T21:06:36.966Z,7.90
2017-10-26T21:09:11.694Z,7.57
2017-10-26T21:11:46.443Z,8.60
2017-10-26T21:14:21.196Z,7.70
2017-10-26T21:16:50.062Z,9.05
2017-10-26T21:19:18.912Z,9.70
2017-10-26T21:21:47.766Z,9.33
2017-10-26T21:24:16.666Z,8.57
2017-10-26T21:26:45.747Z,8.90
2017-10-26T21:29:14.628Z,9.10
2017-10-26T21:31:43.496Z,7.47
2017-10-26T21:34:12.925Z,12.83
2017-10-26T21:36:41.775Z,8.77
2017-10-26T21:39:10.641Z,11.97
2017-10-26T21:41:39.501Z,11.70
2017-10-26T21:44:08.394Z,14.00
2017-10-26T21:46:37.254Z,9.13
2017-10-26T21:49:06.094Z,8.73
2017-10-26T21:51:34.987Z,10.60
2017-10-26T21:54:03.848Z,86.90
2017-10-26T21:56:32.733Z,69.30
2017-10-26T21:59:01.582Z,42.77
2017-10-26T22:01:30.604Z,23.07
2017-10-26T22:03:59.458Z,13.00
2017-10-26T22:06:28.316Z,13.60
2017-10-26T22:08:57.211Z,10.30
2017-10-26T22:11:26.158Z,10.93
2017-10-26T22:13:55.037Z,11.93
2017-10-26T22:16:24.436Z,12.10
2017-10-26T22:18:53.324Z,13.80
2017-10-26T22:21:22.204Z,13.20
2017-10-26T22:23:51.078Z,11.07
2017-10-26T22:26:19.944Z,12.70
2017-10-26T22:28:48.792Z,17.70
2017-10-26T22:31:17.703Z,12.43
2017-10-26T22:33:46.550Z,13.40
2017-10-26T22:36:15.418Z,11.93
2017-10-26T22:38:44.299Z,8.40
2017-10-26T22:41:13.146Z,6.73
2017-10-26T22:43:42.011Z,7.03
2017-10-26T22:46:10.875Z,7.90
2017-10-26T22:48:39.786Z,5.63
2017-10-26T22:51:08.654Z,11.73
2017-10-26T22:53:37.526Z,11.97
2017-10-26T22:56:06.401Z,7.47
2017-10-26T22:58:35.270Z,6.23
2017-10-26T23:01:04.148Z,7.80
2017-10-26T23:03:33.018Z,9.03
2017-10-26T23:06:01.911Z,11.57
2017-10-26T23:08:30.757Z,7.10
2017-10-26T23:10:59.610Z,5.93
2017-10-26T23:13:28.478Z,5.87
2017-10-26T23:15:57.335Z,13.30
2017-10-26T23:18:26.196Z,10.40
2017-10-26T23:20:55.038Z,9.60
2017-10-26T23:23:23.926Z,9.47
2017-10-26T23:25:52.773Z,11.37
2017-10-26T23:28:21.621Z,8.67
2017-10-26T23:30:50.505Z,12.67
2017-10-26T23:33:19.362Z,8.70
2017-10-26T23:35:48.234Z,9.70
2017-10-26T23:38:17.099Z,13.40
2017-10-26T23:40:45.998Z,8.17
2017-10-26T23:43:14.839Z,6.47
2017-10-26T23:45:43.695Z,8.40
2017-10-26T23:48:12.567Z,12.53
2017-10-26T23:50:41.422Z,7.60
2017-10-26T23:53:10.314Z,7.13
2017-10-26T23:55:39.176Z,4.80
2017-10-26T23:58:08.102Z,8.90
